WEATHER DATA

YESTERDAY
Time Temp. Dewp. Hum. Wind dir Wind speed Wind gust Bar. 1h Prec. 24h Prec.
00:08 -6.1 -10.8 66 206 0.6 1.4 1024.2 0.0000 0.0000
00:19 -6.3 -10.9 67 206 0.6 1.4 1024.2 0.0000 0.0000
00:29 -6.5 -10.9 68 206 0.6 1.4 1024.1 0.0000 0.0000
00:39 -6.4 -10.8 68 206 0.6 1.4 1024.1 0.0000 0.0000
00:49 -6.6 -11 68 206 0.6 1.4 1024 0.0000 0.0000
00:59 -6.8 -11 69 206 0.6 1.4 1024 0.0000 0.0000
01:08 -6.9 -11.1 69 206 0.6 1.4 1024.2 0.0000 0.0000
01:18 -7 -11 70 303 0.6 1.4 1024.3 0.0000 0.0000
01:29 -7.1 -11.1 70 0 0.3 0.6 1024.3 0.0000 0.0000
01:38 -7.2 -11.1 71 135 0.3 1.7 1024.2 0.0000 0.0000
01:48 -7.4 -11.3 71 135 0.3 1.7 1024.3 0.0000 0.0000
01:59 -7.5 -11.2 72 135 0.3 1.7 1024.3 0.0000 0.0000
02:08 -7.6 -11.3 72 198 0.3 0.6 1024.3 0.0000 0.0000
02:18 -7.7 -11.3 73 202 0.3 0.8 1024.4 0.0000 0.0000
02:28 -7.8 -11.4 73 242 0.8 1.7 1024.5 0.0000 0.0000
02:39 -7.8 -11.2 74 242 0.8 1.7 1024.4 0.0000 0.0000
02:48 -7.8 -11.4 73 242 0.8 1.7 1024.4 0.0000 0.0000
02:58 -7.8 -11.4 73 122 0.3 0.6 1024.4 0.0000 0.0000
03:09 -7.8 -11.4 73 122 0.3 0.6 1024.4 0.0000 0.0000
03:19 -7.7 -11.3 73 0.0 0.0 1024.4 0.0000 0.0000
03:28 -7.7 -11.4 72 0.0 0.0 1024.3 0.0000 0.0000
03:38 -7.7 -11.4 72 0.0 0.0 1024.4 0.0000 0.0000
03:49 -7.8 -11.5 72 0.0 0.0 1024.4 0.0000 0.0000
03:58 -7.9 -11.6 72 0.0 0.0 1024.4 0.0000 0.0000
04:08 -8.1 -11.8 72 0.0 0.0 1024.4 0.0000 0.0000
04:19 -8.2 -11.7 73 0.0 0.0 1024.5 0.0000 0.0000
04:29 -8.4 -11.9 73 347 0.3 0.8 1024.5 0.0000 0.0000
04:38 -8.6 -12 74 348 0.6 0.6 1024.7 0.0000 0.0000
04:49 -8.7 -11.9 75 329 0.8 1.1 1024.8 0.0000 0.0000
04:59 -8.9 -12.1 75 270 0.3 0.6 1024.8 0.0000 0.0000
05:08 -9 -12.2 75 270 0.3 0.8 1024.7 0.0000 0.0000
05:18 -9.1 -12.2 76 315 0.8 1.7 1024.8 0.0000 0.0000
05:29 -9.2 -12.3 76 344 0.8 1.1 1025 0.0000 0.0000
05:39 -9.2 -12.1 77 0.0 0.0 1025 0.0000 0.0000
05:48 -9.2 -12.1 77 0.0 0.0 1025 0.0000 0.0000
05:59 -9 -12.1 76 204 0.8 1.7 1025.1 0.0000 0.0000
06:09 -8.9 -12 76 221 0.6 0.6 1025.2 0.0000 0.0000
06:18 -8.8 -12 75 221 0.6 0.6 1025.3 0.0000 0.0000
06:29 -8.7 -12.1 74 227 0.6 1.4 1025.4 0.0000 0.0000
06:39 -8.7 -12.1 74 8 0.6 0.8 1025.5 0.0000 0.0000
06:49 -8.8 -12.3 73 300 0.6 0.6 1025.5 0.0000 0.0000
06:58 -9 -12.4 74 270 0.3 0.6 1025.5 0.0000 0.0000
07:09 -9.2 -12.6 74 315 0.3 0.8 1025.7 0.0000 0.0000
07:19 -9.4 -12.5 76 12 0.3 0.8 1025.9 0.0000 0.0000
07:29 -9.4 -12.5 76 354 0.3 1.1 1025.9 0.0000 0.0000
07:39 -9.5 -12.6 76 330 0.6 1.1 1026 0.0000 0.0000
07:49 -9.4 -12.3 77 141 0.3 0.8 1026.1 0.0000 0.0000
07:59 -9.1 -12 77 204 0.8 1.7 1026 0.0000 0.0000
08:09 -8.8 -12 75 183 0.3 1.4 1026 0.0000 0.0000
08:19 -8.7 -11.9 75 201 0.6 1.4 1026.2 0.0000 0.0000
08:29 -8.1 -11.8 72 200 1.7 3.3 1026.2 0.0000 0.0000
08:39 -7.4 -11.8 68 200 1.9 3.3 1026.2 0.0000 0.0000
08:49 -6.6 -11.5 65 215 2.2 3.9 1026.4 0.0000 0.0000
08:59 -5.8 -11.2 62 216 1.9 4.2 1026.3 0.0000 0.0000
09:09 -4.9 -11.3 57 229 1.9 3.9 1026.3 0.0000 0.0000
09:19 -4 -10.9 55 212 2.5 4.7 1026.3 0.0000 0.0000
09:29 -3.2 -11 51 219 1.9 4.2 1026.3 0.0000 0.0000
09:39 -2.4 -10.4 50 206 2.8 5.0 1026.3 0.0000 0.0000
09:49 -1.8 -10.6 47 212 2.8 5.6 1026.3 0.0000 0.0000
09:59 -1.2 -10.5 45 211 3.3 6.9 1026.2 0.0000 0.0000
10:09 -0.8 -10.4 44 221 3.3 6.1 1026.3 0.0000 0.0000
10:19 -0.4 -10.5 42 203 3.9 7.2 1026.3 0.0000 0.0000
10:29 -0.1 -10 43 210 2.8 5.6 1026.4 0.0000 0.0000
10:39 0.2 -10 42 199 3.1 8.9 1026.5 0.0000 0.0000
10:49 0.4 -9.8 42 203 3.1 6.7 1026.5 0.0000 0.0000
10:59 0.8 -9.5 42 207 2.8 5.0 1026.6 0.0000 0.0000
11:09 0.9 -9.4 42 219 3.3 6.7 1026.5 0.0000 0.0000
11:19 1 -9.3 42 229 3.3 6.9 1026.5 0.0000 0.0000
11:29 1.2 -8.9 43 206 3.1 6.7 1026.5 0.0000 0.0000
11:40 1.3 -9.1 42 213 3.1 6.9 1026.5 0.0000 0.0000
11:49 1.5 -8.9 42 212 3.3 6.4 1026.5 0.0000 0.0000
11:59 1.6 -8.6 43 211 3.1 7.8 1026.5 0.0000 0.0000
12:08 1.8 -8.4 43 216 2.2 9.2 1026.5 0.0000 0.0000
12:17 1.9 -8.3 43 217 2.5 5.8 1026.4 0.0000 0.0000
12:28 2 -8.2 43 229 2.8 8.6 1026.3 0.0000 0.0000
12:39 2.1 -7.6 45 215 1.9 4.2 1026.3 0.0000 0.0000
12:49 2.3 -7.7 44 225 1.7 3.3 1026.3 0.0000 0.0000
12:58 2.4 -7.6 44 225 2.8 6.1 1026.3 0.0000 0.0000
13:08 2.4 -7.1 46 222 2.8 5.6 1026.3 0.0000 0.0000
13:19 2.5 -6.6 48 212 4.2 7.2 1026.2 0.0000 0.0000
13:29 2.7 -6.2 49 193 2.8 4.7 1026.4 0.0000 0.0000
13:38 2.4 -6.4 49 231 2.8 6.1 1026.3 0.0000 0.0000
13:49 2.3 -6 51 184 2.2 4.4 1026.1 0.0000 0.0000
13:59 2.3 -6.3 50 242 1.7 3.6 1026.1 0.0000 0.0000
14:09 2.1 -6.7 49 292 2.5 5.0 1026.2 0.0000 0.0000
14:18 2 -6.3 51 229 2.5 4.4 1026.3 0.0000 0.0000
14:29 1.9 -6.4 51 251 1.9 4.4 1026.3 0.0000 0.0000
14:39 1.7 -6.5 51 229 2.2 4.2 1026.3 0.0000 0.0000
14:43 1.7 -6.5 51 210 2.2 5.0 1026.3 0.0000 0.0000
14:53 1.5 -6.7 51 205 1.9 4.4 1026.3 0.0000 0.0000
15:03 1.5 -6.9 50 205 1.9 4.4 1026.5 0.0000 0.0000
15:13 1.4 -7.2 49 205 1.9 4.4 1026.5 0.0000 0.0000
15:23 1.5 -7.4 48 222 3.1 5.6 1026.6 0.0000 0.0000
15:33 1.4 -7.5 48 233 1.7 3.9 1026.5 0.0000 0.0000
15:43 1.2 -7.6 48 219 1.7 3.1 1026.5 0.0000 0.0000
15:53 1.1 -7.7 48 277 1.7 3.6 1026.6 0.0000 0.0000
16:03 0.9 -8.1 47 226 2.2 3.9 1026.8 0.0000 0.0000
16:13 0.6 -8.4 47 214 1.9 3.3 1026.7 0.0000 0.0000
16:23 0.3 -8.4 48 230 1.7 4.4 1026.7 0.0000 0.0000
16:33 0 -8.6 48 277 1.4 3.6 1026.7 0.0000 0.0000
16:43 -0.2 -8.8 48 270 2.2 6.1 1026.8 0.0000 0.0000
16:53 -0.3 -8.9 48 205 2.8 5.8 1026.8 0.0000 0.0000
17:03 -0.5 -9.1 48 215 1.1 1.4 1026.9 0.0000 0.0000
17:13 -0.6 -9.2 48 227 1.9 3.9 1026.9 0.0000 0.0000
17:23 -0.7 -9.3 48 240 1.9 4.2 1026.9 0.0000 0.0000
17:33 -0.8 -9.4 48 212 1.7 3.6 1026.9 0.0000 0.0000
17:44 -0.9 -9.2 49 224 1.7 3.3 1027 0.0000 0.0000
17:53 -1 -9.3 49 168 1.4 4.2 1027.1 0.0000 0.0000
18:03 -1.2 -9.5 49 182 1.4 3.3 1027 0.0000 0.0000
18:13 -1.3 -9.6 49 238 1.7 2.8 1027.2 0.0000 0.0000
18:26 -1.4 -9.7 49 195 2.5 5.3 1027.2 0.0000 0.0000
18:36 -1.5 -9.8 49 198 1.9 5.0 1027.3 0.0000 0.0000
18:46 -1.6 -9.9 49 234 1.7 5.0 1027.4 0.0000 0.0000
18:56 -1.7 -10 49 225 1.9 3.1 1027.4 0.0000 0.0000
19:06 -1.8 -9.9 50 202 1.1 1.9 1027.4 0.0000 0.0000
19:16 -1.9 -10.2 49 207 1.9 3.6 1027.4 0.0000 0.0000
19:26 -2 -10.3 49 207 2.2 4.7 1027.5 0.0000 0.0000
19:35 -2.1 -10.4 49 206 0.8 1.4 1027.6 0.0000 0.0000
19:46 -2.2 -10.5 49 239 1.7 2.8 1027.8 0.0000 0.0000
19:56 -2.3 -10.6 49 205 1.4 5.0 1027.8 0.0000 0.0000
20:06 -2.4 -10.6 49 232 1.9 5.3 1028 0.0000 0.0000
20:16 -2.5 -10.7 49 211 1.9 5.3 1028.1 0.0000 0.0000
20:26 -2.6 -10.8 49 211 1.9 5.3 1028.1 0.0000 0.0000
20:36 -2.7 -10.7 50 211 1.9 5.3 1028.4 0.0000 0.0000
20:46 -2.8 -10.6 51 211 1.9 5.3 1028.2 0.0000 0.0000
20:56 -2.9 -10.7 51 211 1.9 5.3 1028.4 0.0000 0.0000
21:06 -3 -10.5 52 211 1.9 5.3 1028.5 0.0000 0.0000
21:16 -3.1 -10.6 52 211 1.9 5.3 1028.6 0.0000 0.0000
21:26 -3.2 -10.5 53 211 1.9 5.3 1028.6 0.0000 0.0000
21:36 -3.3 -10.6 53 211 1.9 5.3 1028.6 0.0000 0.0000
21:46 -3.4 -10.5 54 211 1.9 5.3 1028.7 0.0000 0.0000
21:54 -3.5 -10.6 54 211 1.9 5.3 1028.8 0.0000 0.0000
22:04 -3.6 -10.7 54 221 2.2 3.3 1028.8 0.0000 0.0000
22:14 -3.7 -10.8 54 221 2.2 3.3 1028.9 0.0000 0.0000
22:24 -3.8 -10.7 55 0.0 0.0 1029 0.0000 0.0000
22:32 -3.9 -10.8 55 177 1.9 5.8 1029.2 0.0000 0.0000
22:42 -4 -10.7 56 210 2.2 5.3 1029.3 0.0000 0.0000
22:52 -4.1 -10.8 56 210 2.2 5.3 1029.3 0.0000 0.0000
23:02 -4.2 -10.9 56 239 1.7 3.9 1029.4 0.0000 0.0000
23:13 -4.3 -10.9 56 116 1.7 3.3 1029.3 0.0000 0.0000
23:22 -4.4 -11 56 206 1.4 2.8 1029.4 0.0000 0.0000
23:32 -4.6 -11 57 206 1.4 2.8 1029.3 0.0000 0.0000
23:42 -4.7 -11.1 57 200 1.1 2.2 1029.3 0.0000 0.0000
23:52 -4.8 -11 58 197 1.9 2.8 1029.3 0.0000

DAY STATISTICS

2018-02-24
TEMPERATURE
AVERAGE
-3.5
HIGH
2.7
13:29
LOW
-9.5
07:39
PRESSURE
AVERAGE
1026.4
HIGH
1029.4
23:02
LOW
1024.0
00:49
DEWPOINT
AVERAGE
-10.2
HIGH
-6.0
13:49
LOW
-12.6
07:09
HUMIDITY
AVERAGE
58
HIGH
77
05:39
LOW
42
10:19
WIND SPEED
AVERAGE
1.5
HIGH
4.2
13:19
WIND GUST
AVERAGE
3.4
HIGH
9.2
12:08
WIND DIRECTION
PREVAILING
SW
63.4%
N
5.2
NE
0.0
E
0.0
SE
5.2
S
15.7
SW
63.4
W
6.0
NW
4.5
PRECIPITATION
RAIN HOUR
0.0
RAIN DAY
0.0
TEMPERATURE (°C)
LOW
-9.5
HIGH
2.7
AVERAGE
-3.5
PRESSURE (hpa)
LOW
1024.0
HIGH
1029.4
AVERAGE
1026.4
DEVICE